sensor_id;sensor_type;location;lat;lon;timestamp;P1;durP1;ratioP1;P2;durP2;ratioP2
12816;SDS011;6473;51.552;6.716;2024-01-10T00:00:28;4.27;;;3.10;;
12816;SDS011;6473;51.552;6.716;2024-01-10T00:02:55;4.97;;;3.60;;
12816;SDS011;6473;51.552;6.716;2024-01-10T00:05:22;4.27;;;2.97;;
12816;SDS011;6473;51.552;6.716;2024-01-10T00:07:49;3.70;;;2.30;;
12816;SDS011;6473;51.552;6.716;2024-01-10T00:10:16;4.40;;;3.17;;
12816;SDS011;6473;51.552;6.716;2024-01-10T00:12:44;5.03;;;3.00;;
12816;SDS011;6473;51.552;6.716;2024-01-10T00:15:12;4.90;;;3.07;;
12816;SDS011;6473;51.552;6.716;2024-01-10T00:17:39;3.10;;;2.37;;
12816;SDS011;6473;51.552;6.716;2024-01-10T00:20:07;3.20;;;2.53;;
12816;SDS011;6473;51.552;6.716;2024-01-10T00:22:34;4.90;;;3.20;;
12816;SDS011;6473;51.552;6.716;2024-01-10T00:25:01;4.97;;;3.00;;
12816;SDS011;6473;51.552;6.716;2024-01-10T00:27:29;4.90;;;3.00;;
12816;SDS011;6473;51.552;6.716;2024-01-10T00:29:56;4.80;;;2.93;;
12816;SDS011;6473;51.552;6.716;2024-01-10T00:32:25;5.33;;;3.20;;
12816;SDS011;6473;51.552;6.716;2024-01-10T00:34:52;4.80;;;3.37;;
12816;SDS011;6473;51.552;6.716;2024-01-10T00:37:19;4.90;;;2.77;;
12816;SDS011;6473;51.552;6.716;2024-01-10T00:39:46;4.47;;;2.83;;
12816;SDS011;6473;51.552;6.716;2024-01-10T00:42:13;4.63;;;3.37;;
12816;SDS011;6473;51.552;6.716;2024-01-10T00:44:40;4.40;;;3.40;;
12816;SDS011;6473;51.552;6.716;2024-01-10T00:47:07;6.30;;;3.00;;
12816;SDS011;6473;51.552;6.716;2024-01-10T00:49:36;3.90;;;3.00;;
12816;SDS011;6473;51.552;6.716;2024-01-10T00:52:03;5.23;;;3.20;;
12816;SDS011;6473;51.552;6.716;2024-01-10T00:54:30;4.17;;;3.13;;
12816;SDS011;6473;51.552;6.716;2024-01-10T00:56:57;3.57;;;2.83;;
12816;SDS011;6473;51.552;6.716;2024-01-10T00:59:23;4.80;;;3.23;;
12816;SDS011;6473;51.552;6.716;2024-01-10T01:01:50;4.63;;;2.80;;
12816;SDS011;6473;51.552;6.716;2024-01-10T01:04:17;8.73;;;2.97;;
12816;SDS011;6473;51.552;6.716;2024-01-10T01:06:46;5.27;;;3.00;;
12816;SDS011;6473;51.552;6.716;2024-01-10T01:09:13;7.10;;;3.43;;
12816;SDS011;6473;51.552;6.716;2024-01-10T01:11:40;6.07;;;3.30;;
12816;SDS011;6473;51.552;6.716;2024-01-10T01:14:07;5.80;;;2.40;;
12816;SDS011;6473;51.552;6.716;2024-01-10T01:16:34;4.77;;;3.00;;
12816;SDS011;6473;51.552;6.716;2024-01-10T01:19:02;4.90;;;3.27;;
12816;SDS011;6473;51.552;6.716;2024-01-10T01:21:29;5.13;;;3.47;;
12816;SDS011;6473;51.552;6.716;2024-01-10T01:23:57;5.23;;;3.17;;
12816;SDS011;6473;51.552;6.716;2024-01-10T01:26:24;4.30;;;3.17;;
12816;SDS011;6473;51.552;6.716;2024-01-10T01:28:51;5.90;;;3.13;;
12816;SDS011;6473;51.552;6.716;2024-01-10T01:31:18;6.73;;;2.83;;
12816;SDS011;6473;51.552;6.716;2024-01-10T01:33:46;6.40;;;2.90;;
12816;SDS011;6473;51.552;6.716;2024-01-10T01:36:13;4.70;;;3.03;;
12816;SDS011;6473;51.552;6.716;2024-01-10T01:38:40;4.70;;;3.10;;
12816;SDS011;6473;51.552;6.716;2024-01-10T01:41:10;5.87;;;3.60;;
12816;SDS011;6473;51.552;6.716;2024-01-10T01:43:37;4.43;;;2.53;;
12816;SDS011;6473;51.552;6.716;2024-01-10T01:46:04;5.80;;;2.80;;
12816;SDS011;6473;51.552;6.716;2024-01-10T01:48:32;7.03;;;2.50;;
12816;SDS011;6473;51.552;6.716;2024-01-10T01:51:00;3.70;;;3.30;;
12816;SDS011;6473;51.552;6.716;2024-01-10T01:53:29;4.67;;;3.17;;
12816;SDS011;6473;51.552;6.716;2024-01-10T01:55:57;4.50;;;2.90;;
12816;SDS011;6473;51.552;6.716;2024-01-10T01:58:27;5.77;;;3.53;;
12816;SDS011;6473;51.552;6.716;2024-01-10T02:00:54;5.63;;;3.50;;
12816;SDS011;6473;51.552;6.716;2024-01-10T02:03:22;5.23;;;3.47;;
12816;SDS011;6473;51.552;6.716;2024-01-10T02:05:49;4.70;;;3.43;;
12816;SDS011;6473;51.552;6.716;2024-01-10T02:08:16;4.40;;;2.80;;
12816;SDS011;6473;51.552;6.716;2024-01-10T02:10:43;5.50;;;3.70;;
12816;SDS011;6473;51.552;6.716;2024-01-10T02:13:10;4.77;;;2.97;;
12816;SDS011;6473;51.552;6.716;2024-01-10T02:15:39;3.87;;;3.00;;
12816;SDS011;6473;51.552;6.716;2024-01-10T02:18:06;6.20;;;3.30;;
12816;SDS011;6473;51.552;6.716;2024-01-10T02:20:35;5.43;;;3.00;;
12816;SDS011;6473;51.552;6.716;2024-01-10T02:23:02;4.07;;;2.93;;
12816;SDS011;6473;51.552;6.716;2024-01-10T02:25:32;3.80;;;2.53;;
12816;SDS011;6473;51.552;6.716;2024-01-10T02:28:00;3.50;;;2.70;;
12816;SDS011;6473;51.552;6.716;2024-01-10T02:30:27;4.97;;;3.60;;
12816;SDS011;6473;51.552;6.716;2024-01-10T02:32:54;7.37;;;3.30;;
12816;SDS011;6473;51.552;6.716;2024-01-10T02:35:22;6.43;;;3.53;;
12816;SDS011;6473;51.552;6.716;2024-01-10T02:37:49;5.47;;;3.03;;
12816;SDS011;6473;51.552;6.716;2024-01-10T02:40:17;3.53;;;3.10;;
12816;SDS011;6473;51.552;6.716;2024-01-10T02:42:46;4.67;;;3.40;;
12816;SDS011;6473;51.552;6.716;2024-01-10T02:45:12;4.23;;;3.03;;
12816;SDS011;6473;51.552;6.716;2024-01-10T02:47:40;6.83;;;3.23;;
12816;SDS011;6473;51.552;6.716;2024-01-10T02:50:07;5.10;;;3.37;;
12816;SDS011;6473;51.552;6.716;2024-01-10T02:52:33;6.57;;;2.87;;
12816;SDS011;6473;51.552;6.716;2024-01-10T02:55:00;4.83;;;2.50;;
12816;SDS011;6473;51.552;6.716;2024-01-10T02:57:27;5.43;;;2.70;;
12816;SDS011;6473;51.552;6.716;2024-01-10T02:59:56;5.83;;;3.33;;
12816;SDS011;6473;51.552;6.716;2024-01-10T03:02:23;6.63;;;3.43;;
12816;SDS011;6473;51.552;6.716;2024-01-10T03:04:50;4.83;;;3.10;;
12816;SDS011;6473;51.552;6.716;2024-01-10T03:07:17;5.40;;;3.20;;
12816;SDS011;6473;51.552;6.716;2024-01-10T03:09:44;5.30;;;3.07;;
12816;SDS011;6473;51.552;6.716;2024-01-10T03:12:11;5.43;;;3.43;;
12816;SDS011;6473;51.552;6.716;2024-01-10T03:14:39;4.33;;;3.20;;
12816;SDS011;6473;51.552;6.716;2024-01-10T03:17:07;5.20;;;3.67;;
12816;SDS011;6473;51.552;6.716;2024-01-10T03:19:34;5.03;;;3.27;;
12816;SDS011;6473;51.552;6.716;2024-01-10T03:22:02;3.40;;;2.73;;
12816;SDS011;6473;51.552;6.716;2024-01-10T03:24:29;4.90;;;3.50;;
12816;SDS011;6473;51.552;6.716;2024-01-10T03:26:57;6.70;;;2.97;;
12816;SDS011;6473;51.552;6.716;2024-01-10T03:29:24;5.97;;;3.17;;
12816;SDS011;6473;51.552;6.716;2024-01-10T03:31:51;3.87;;;3.17;;
12816;SDS011;6473;51.552;6.716;2024-01-10T03:34:20;7.70;;;3.23;;
12816;SDS011;6473;51.552;6.716;2024-01-10T03:36:47;6.13;;;3.47;;
12816;SDS011;6473;51.552;6.716;2024-01-10T03:39:14;6.77;;;3.60;;
12816;SDS011;6473;51.552;6.716;2024-01-10T03:41:41;4.87;;;2.77;;
12816;SDS011;6473;51.552;6.716;2024-01-10T03:44:08;16.27;;;3.50;;
12816;SDS011;6473;51.552;6.716;2024-01-10T03:46:35;4.97;;;2.93;;
12816;SDS011;6473;51.552;6.716;2024-01-10T03:49:02;4.30;;;2.97;;
12816;SDS011;6473;51.552;6.716;2024-01-10T03:51:31;3.40;;;3.00;;
12816;SDS011;6473;51.552;6.716;2024-01-10T03:53:58;5.00;;;3.50;;
12816;SDS011;6473;51.552;6.716;2024-01-10T03:56:25;4.80;;;3.17;;
12816;SDS011;6473;51.552;6.716;2024-01-10T03:58:52;6.20;;;3.30;;
12816;SDS011;6473;51.552;6.716;2024-01-10T04:01:21;4.60;;;2.80;;
12816;SDS011;6473;51.552;6.716;2024-01-10T04:03:48;3.97;;;2.90;;
12816;SDS011;6473;51.552;6.716;2024-01-10T04:06:15;4.37;;;2.90;;
12816;SDS011;6473;51.552;6.716;2024-01-10T04:08:44;7.13;;;3.60;;
12816;SDS011;6473;51.552;6.716;2024-01-10T04:11:11;4.10;;;3.00;;
12816;SDS011;6473;51.552;6.716;2024-01-10T04:13:38;6.73;;;3.37;;
12816;SDS011;6473;51.552;6.716;2024-01-10T04:16:05;6.13;;;3.30;;
12816;SDS011;6473;51.552;6.716;2024-01-10T04:18:32;6.70;;;3.30;;
12816;SDS011;6473;51.552;6.716;2024-01-10T04:20:59;7.80;;;3.10;;
12816;SDS011;6473;51.552;6.716;2024-01-10T04:23:27;7.47;;;2.90;;
12816;SDS011;6473;51.552;6.716;2024-01-10T04:25:57;10.43;;;3.47;;
12816;SDS011;6473;51.552;6.716;2024-01-10T04:28:24;4.37;;;2.90;;
12816;SDS011;6473;51.552;6.716;2024-01-10T04:30:52;5.77;;;3.47;;
12816;SDS011;6473;51.552;6.716;2024-01-10T04:33:19;9.97;;;3.47;;
12816;SDS011;6473;51.552;6.716;2024-01-10T04:35:46;8.20;;;3.43;;
12816;SDS011;6473;51.552;6.716;2024-01-10T04:38:13;5.67;;;2.30;;
12816;SDS011;6473;51.552;6.716;2024-01-10T04:40:40;3.77;;;2.93;;
12816;SDS011;6473;51.552;6.716;2024-01-10T04:43:09;5.33;;;3.37;;
12816;SDS011;6473;51.552;6.716;2024-01-10T04:45:36;5.73;;;3.40;;
12816;SDS011;6473;51.552;6.716;2024-01-10T04:48:03;6.73;;;2.87;;
12816;SDS011;6473;51.552;6.716;2024-01-10T04:50:32;4.60;;;2.73;;
12816;SDS011;6473;51.552;6.716;2024-01-10T04:52:59;7.30;;;3.10;;
12816;SDS011;6473;51.552;6.716;2024-01-10T04:55:26;7.17;;;3.00;;
12816;SDS011;6473;51.552;6.716;2024-01-10T04:57:54;6.60;;;3.20;;
12816;SDS011;6473;51.552;6.716;2024-01-10T05:00:21;6.37;;;3.43;;
12816;SDS011;6473;51.552;6.716;2024-01-10T05:02:48;6.67;;;3.60;;
12816;SDS011;6473;51.552;6.716;2024-01-10T05:05:15;5.30;;;3.47;;
12816;SDS011;6473;51.552;6.716;2024-01-10T05:07:48;6.43;;;3.37;;
12816;SDS011;6473;51.552;6.716;2024-01-10T05:10:15;4.13;;;3.33;;
12816;SDS011;6473;51.552;6.716;2024-01-10T05:12:42;5.37;;;2.97;;
12816;SDS011;6473;51.552;6.716;2024-01-10T05:15:10;7.83;;;3.63;;
12816;SDS011;6473;51.552;6.716;2024-01-10T05:17:38;7.23;;;3.00;;
12816;SDS011;6473;51.552;6.716;2024-01-10T05:20:05;7.57;;;3.13;;
12816;SDS011;6473;51.552;6.716;2024-01-10T05:22:34;4.00;;;3.07;;
12816;SDS011;6473;51.552;6.716;2024-01-10T05:25:01;5.20;;;3.33;;
12816;SDS011;6473;51.552;6.716;2024-01-10T05:27:29;6.63;;;3.63;;
12816;SDS011;6473;51.552;6.716;2024-01-10T05:29:56;5.87;;;3.53;;
12816;SDS011;6473;51.552;6.716;2024-01-10T05:32:24;5.27;;;3.37;;
12816;SDS011;6473;51.552;6.716;2024-01-10T05:34:53;4.43;;;2.77;;
12816;SDS011;6473;51.552;6.716;2024-01-10T05:37:20;5.27;;;3.33;;
12816;SDS011;6473;51.552;6.716;2024-01-10T05:39:48;6.97;;;3.67;;
12816;SDS011;6473;51.552;6.716;2024-01-10T05:42:15;4.20;;;3.47;;
12816;SDS011;6473;51.552;6.716;2024-01-10T05:44:43;8.27;;;4.13;;
12816;SDS011;6473;51.552;6.716;2024-01-10T05:47:10;4.73;;;3.13;;
12816;SDS011;6473;51.552;6.716;2024-01-10T05:49:38;4.77;;;3.53;;
12816;SDS011;6473;51.552;6.716;2024-01-10T05:52:07;4.17;;;2.87;;
12816;SDS011;6473;51.552;6.716;2024-01-10T05:54:33;7.20;;;3.50;;
12816;SDS011;6473;51.552;6.716;2024-01-10T05:57:01;4.40;;;2.93;;
12816;SDS011;6473;51.552;6.716;2024-01-10T05:59:28;6.37;;;3.57;;
12816;SDS011;6473;51.552;6.716;2024-01-10T06:01:56;6.40;;;3.97;;
12816;SDS011;6473;51.552;6.716;2024-01-10T06:04:23;5.00;;;3.20;;
12816;SDS011;6473;51.552;6.716;2024-01-10T06:06:53;6.47;;;3.83;;
12816;SDS011;6473;51.552;6.716;2024-01-10T06:09:21;6.97;;;4.00;;
12816;SDS011;6473;51.552;6.716;2024-01-10T06:11:48;5.43;;;3.50;;
12816;SDS011;6473;51.552;6.716;2024-01-10T06:14:15;5.70;;;3.30;;
12816;SDS011;6473;51.552;6.716;2024-01-10T06:16:42;5.03;;;3.47;;
12816;SDS011;6473;51.552;6.716;2024-01-10T06:19:10;8.30;;;4.53;;
12816;SDS011;6473;51.552;6.716;2024-01-10T06:21:37;6.17;;;3.20;;
12816;SDS011;6473;51.552;6.716;2024-01-10T06:24:04;4.90;;;3.03;;
12816;SDS011;6473;51.552;6.716;2024-01-10T06:26:33;7.33;;;4.23;;
12816;SDS011;6473;51.552;6.716;2024-01-10T06:28:59;8.80;;;3.63;;
12816;SDS011;6473;51.552;6.716;2024-01-10T06:31:26;5.33;;;3.97;;
12816;SDS011;6473;51.552;6.716;2024-01-10T06:33:54;4.57;;;3.23;;
12816;SDS011;6473;51.552;6.716;2024-01-10T06:36:21;7.87;;;4.10;;
12816;SDS011;6473;51.552;6.716;2024-01-10T06:38:48;7.37;;;4.37;;
12816;SDS011;6473;51.552;6.716;2024-01-10T06:41:15;7.77;;;4.13;;
12816;SDS011;6473;51.552;6.716;2024-01-10T06:43:44;7.87;;;4.00;;
12816;SDS011;6473;51.552;6.716;2024-01-10T06:46:10;6.60;;;4.27;;
12816;SDS011;6473;51.552;6.716;2024-01-10T06:48:38;5.93;;;4.13;;
12816;SDS011;6473;51.552;6.716;2024-01-10T06:51:09;11.03;;;3.50;;
12816;SDS011;6473;51.552;6.716;2024-01-10T06:53:37;7.80;;;4.40;;
12816;SDS011;6473;51.552;6.716;2024-01-10T06:56:04;6.23;;;3.90;;
12816;SDS011;6473;51.552;6.716;2024-01-10T06:58:32;6.70;;;3.90;;
12816;SDS011;6473;51.552;6.716;2024-01-10T07:01:00;8.07;;;4.27;;
12816;SDS011;6473;51.552;6.716;2024-01-10T07:03:30;8.13;;;4.10;;
12816;SDS011;6473;51.552;6.716;2024-01-10T07:05:57;5.97;;;3.17;;
12816;SDS011;6473;51.552;6.716;2024-01-10T07:08:25;6.27;;;3.80;;
12816;SDS011;6473;51.552;6.716;2024-01-10T07:10:51;7.27;;;4.00;;
12816;SDS011;6473;51.552;6.716;2024-01-10T07:13:20;6.90;;;3.67;;
12816;SDS011;6473;51.552;6.716;2024-01-10T07:15:48;8.00;;;4.37;;
12816;SDS011;6473;51.552;6.716;2024-01-10T07:18:19;6.03;;;4.47;;
12816;SDS011;6473;51.552;6.716;2024-01-10T07:20:45;11.37;;;4.57;;
12816;SDS011;6473;51.552;6.716;2024-01-10T07:23:13;7.60;;;4.70;;
12816;SDS011;6473;51.552;6.716;2024-01-10T07:25:40;9.27;;;5.03;;
12816;SDS011;6473;51.552;6.716;2024-01-10T07:28:07;7.40;;;4.70;;
12816;SDS011;6473;51.552;6.716;2024-01-10T07:30:34;12.10;;;4.50;;
12816;SDS011;6473;51.552;6.716;2024-01-10T07:33:01;9.33;;;4.70;;
12816;SDS011;6473;51.552;6.716;2024-01-10T07:35:30;6.00;;;4.50;;
12816;SDS011;6473;51.552;6.716;2024-01-10T07:37:57;6.97;;;4.53;;
12816;SDS011;6473;51.552;6.716;2024-01-10T07:40:25;9.10;;;4.97;;
12816;SDS011;6473;51.552;6.716;2024-01-10T07:42:52;10.23;;;5.20;;
12816;SDS011;6473;51.552;6.716;2024-01-10T07:45:19;8.47;;;5.20;;
12816;SDS011;6473;51.552;6.716;2024-01-10T07:47:46;7.10;;;4.50;;
12816;SDS011;6473;51.552;6.716;2024-01-10T07:50:13;9.00;;;4.93;;
12816;SDS011;6473;51.552;6.716;2024-01-10T07:52:42;5.93;;;4.07;;
12816;SDS011;6473;51.552;6.716;2024-01-10T07:55:11;7.17;;;4.80;;
12816;SDS011;6473;51.552;6.716;2024-01-10T07:57:38;9.73;;;4.63;;
12816;SDS011;6473;51.552;6.716;2024-01-10T08:00:07;7.17;;;4.13;;
12816;SDS011;6473;51.552;6.716;2024-01-10T08:02:35;8.47;;;5.03;;
12816;SDS011;6473;51.552;6.716;2024-01-10T08:05:03;7.53;;;4.10;;
12816;SDS011;6473;51.552;6.716;2024-01-10T08:07:30;8.27;;;4.33;;
12816;SDS011;6473;51.552;6.716;2024-01-10T08:09:59;6.67;;;4.30;;
12816;SDS011;6473;51.552;6.716;2024-01-10T08:12:26;6.33;;;4.50;;
12816;SDS011;6473;51.552;6.716;2024-01-10T08:14:53;8.43;;;4.70;;
12816;SDS011;6473;51.552;6.716;2024-01-10T08:17:20;9.03;;;4.47;;
12816;SDS011;6473;51.552;6.716;2024-01-10T08:19:48;8.80;;;4.43;;
12816;SDS011;6473;51.552;6.716;2024-01-10T08:22:17;6.47;;;3.53;;
12816;SDS011;6473;51.552;6.716;2024-01-10T08:24:45;5.97;;;4.63;;
12816;SDS011;6473;51.552;6.716;2024-01-10T08:27:14;6.10;;;4.63;;
12816;SDS011;6473;51.552;6.716;2024-01-10T08:29:42;6.13;;;4.20;;
12816;SDS011;6473;51.552;6.716;2024-01-10T08:32:10;8.27;;;4.77;;
12816;SDS011;6473;51.552;6.716;2024-01-10T08:34:37;7.63;;;4.63;;
12816;SDS011;6473;51.552;6.716;2024-01-10T08:37:04;9.33;;;5.70;;
12816;SDS011;6473;51.552;6.716;2024-01-10T08:39:31;7.90;;;5.03;;
12816;SDS011;6473;51.552;6.716;2024-01-10T08:41:58;10.37;;;4.90;;
12816;SDS011;6473;51.552;6.716;2024-01-10T08:44:27;8.20;;;5.07;;
12816;SDS011;6473;51.552;6.716;2024-01-10T08:46:54;8.93;;;5.37;;
12816;SDS011;6473;51.552;6.716;2024-01-10T08:49:21;10.07;;;4.57;;
12816;SDS011;6473;51.552;6.716;2024-01-10T08:51:48;8.80;;;5.03;;
12816;SDS011;6473;51.552;6.716;2024-01-10T08:54:15;7.33;;;4.73;;
12816;SDS011;6473;51.552;6.716;2024-01-10T08:56:45;9.67;;;5.40;;
12816;SDS011;6473;51.552;6.716;2024-01-10T08:59:12;9.97;;;6.03;;
12816;SDS011;6473;51.552;6.716;2024-01-10T09:01:40;8.80;;;5.20;;
12816;SDS011;6473;51.552;6.716;2024-01-10T09:04:07;9.33;;;5.67;;
12816;SDS011;6473;51.552;6.716;2024-01-10T09:06:35;8.83;;;5.73;;
12816;SDS011;6473;51.552;6.716;2024-01-10T09:09:02;11.30;;;5.53;;
12816;SDS011;6473;51.552;6.716;2024-01-10T09:11:29;11.07;;;6.00;;
12816;SDS011;6473;51.552;6.716;2024-01-10T09:13:56;12.17;;;6.30;;
12816;SDS011;6473;51.552;6.716;2024-01-10T09:16:24;10.50;;;5.70;;
12816;SDS011;6473;51.552;6.716;2024-01-10T09:18:53;11.67;;;6.67;;
12816;SDS011;6473;51.552;6.716;2024-01-10T09:21:22;9.87;;;6.93;;
12816;SDS011;6473;51.552;6.716;2024-01-10T09:23:49;10.73;;;7.13;;
12816;SDS011;6473;51.552;6.716;2024-01-10T09:26:16;11.53;;;6.90;;
12816;SDS011;6473;51.552;6.716;2024-01-10T09:28:44;11.37;;;6.93;;
12816;SDS011;6473;51.552;6.716;2024-01-10T09:31:11;11.13;;;7.23;;
12816;SDS011;6473;51.552;6.716;2024-01-10T09:33:38;10.30;;;7.23;;
12816;SDS011;6473;51.552;6.716;2024-01-10T09:36:07;9.33;;;7.47;;
12816;SDS011;6473;51.552;6.716;2024-01-10T09:38:37;10.93;;;8.07;;
12816;SDS011;6473;51.552;6.716;2024-01-10T09:41:04;13.17;;;7.70;;
12816;SDS011;6473;51.552;6.716;2024-01-10T09:43:31;11.67;;;8.00;;
12816;SDS011;6473;51.552;6.716;2024-01-10T09:46:00;11.33;;;8.30;;
12816;SDS011;6473;51.552;6.716;2024-01-10T09:48:28;11.80;;;8.13;;
12816;SDS011;6473;51.552;6.716;2024-01-10T09:50:55;11.37;;;8.87;;
12816;SDS011;6473;51.552;6.716;2024-01-10T09:53:24;11.57;;;9.53;;
12816;SDS011;6473;51.552;6.716;2024-01-10T09:55:53;13.70;;;9.43;;
12816;SDS011;6473;51.552;6.716;2024-01-10T09:58:22;15.93;;;10.10;;
12816;SDS011;6473;51.552;6.716;2024-01-10T10:00:50;10.47;;;9.30;;
12816;SDS011;6473;51.552;6.716;2024-01-10T10:03:18;11.87;;;9.63;;
12816;SDS011;6473;51.552;6.716;2024-01-10T10:05:45;12.87;;;9.67;;
12816;SDS011;6473;51.552;6.716;2024-01-10T10:08:13;12.83;;;8.90;;
12816;SDS011;6473;51.552;6.716;2024-01-10T10:10:46;12.67;;;9.10;;
12816;SDS011;6473;51.552;6.716;2024-01-10T10:13:23;10.77;;;8.80;;
12816;SDS011;6473;51.552;6.716;2024-01-10T10:15:57;11.67;;;9.37;;
12816;SDS011;6473;51.552;6.716;2024-01-10T10:18:25;17.53;;;12.57;;
12816;SDS011;6473;51.552;6.716;2024-01-10T10:21:05;16.53;;;12.40;;
12816;SDS011;6473;51.552;6.716;2024-01-10T10:23:33;22.53;;;12.73;;
12816;SDS011;6473;51.552;6.716;2024-01-10T10:26:04;13.03;;;11.37;;
12816;SDS011;6473;51.552;6.716;2024-01-10T10:28:39;14.23;;;12.73;;
12816;SDS011;6473;51.552;6.716;2024-01-10T10:31:06;13.53;;;12.07;;
12816;SDS011;6473;51.552;6.716;2024-01-10T10:33:33;14.50;;;12.57;;
12816;SDS011;6473;51.552;6.716;2024-01-10T10:36:00;13.57;;;12.17;;
12816;SDS011;6473;51.552;6.716;2024-01-10T10:38:28;15.53;;;12.50;;
12816;SDS011;6473;51.552;6.716;2024-01-10T10:40:55;13.70;;;11.93;;
12816;SDS011;6473;51.552;6.716;2024-01-10T10:43:24;14.93;;;12.10;;
12816;SDS011;6473;51.552;6.716;2024-01-10T10:45:52;13.57;;;12.13;;
12816;SDS011;6473;51.552;6.716;2024-01-10T10:48:19;17.57;;;13.43;;
12816;SDS011;6473;51.552;6.716;2024-01-10T10:50:48;16.00;;;11.37;;
12816;SDS011;6473;51.552;6.716;2024-01-10T10:53:20;14.30;;;10.60;;
12816;SDS011;6473;51.552;6.716;2024-01-10T10:55:49;13.67;;;10.83;;
12816;SDS011;6473;51.552;6.716;2024-01-10T10:58:17;14.33;;;12.67;;
12816;SDS011;6473;51.552;6.716;2024-01-10T11:00:45;15.10;;;11.93;;
12816;SDS011;6473;51.552;6.716;2024-01-10T11:03:13;15.30;;;12.60;;
12816;SDS011;6473;51.552;6.716;2024-01-10T11:05:41;15.20;;;12.03;;
12816;SDS011;6473;51.552;6.716;2024-01-10T11:08:08;14.03;;;11.83;;
12816;SDS011;6473;51.552;6.716;2024-01-10T11:10:39;14.57;;;13.17;;
12816;SDS011;6473;51.552;6.716;2024-01-10T11:13:16;12.77;;;10.00;;
12816;SDS011;6473;51.552;6.716;2024-01-10T11:15:59;17.40;;;10.60;;
12816;SDS011;6473;51.552;6.716;2024-01-10T11:21:43;13.90;;;11.47;;
12816;SDS011;6473;51.552;6.716;2024-01-10T11:24:22;15.13;;;12.20;;
12816;SDS011;6473;51.552;6.716;2024-01-10T11:26:50;14.67;;;12.27;;
12816;SDS011;6473;51.552;6.716;2024-01-10T11:29:17;13.17;;;11.77;;
12816;SDS011;6473;51.552;6.716;2024-01-10T11:31:46;14.90;;;11.63;;
12816;SDS011;6473;51.552;6.716;2024-01-10T11:34:22;14.43;;;11.53;;
12816;SDS011;6473;51.552;6.716;2024-01-10T11:39:36;14.17;;;11.63;;
12816;SDS011;6473;51.552;6.716;2024-01-10T11:42:04;14.90;;;13.40;;
12816;SDS011;6473;51.552;6.716;2024-01-10T11:44:31;13.67;;;9.87;;
12816;SDS011;6473;51.552;6.716;2024-01-10T11:46:59;13.27;;;9.17;;
12816;SDS011;6473;51.552;6.716;2024-01-10T11:49:27;13.97;;;9.30;;
12816;SDS011;6473;51.552;6.716;2024-01-10T11:51:54;12.47;;;9.27;;
12816;SDS011;6473;51.552;6.716;2024-01-10T11:54:35;13.67;;;9.87;;
12816;SDS011;6473;51.552;6.716;2024-01-10T11:57:07;11.37;;;8.43;;
12816;SDS011;6473;51.552;6.716;2024-01-10T11:59:34;13.73;;;9.60;;
12816;SDS011;6473;51.552;6.716;2024-01-10T12:02:03;13.10;;;9.70;;
12816;SDS011;6473;51.552;6.716;2024-01-10T12:04:31;16.33;;;10.17;;
12816;SDS011;6473;51.552;6.716;2024-01-10T12:07:00;13.57;;;9.80;;
12816;SDS011;6473;51.552;6.716;2024-01-10T12:09:28;15.43;;;9.63;;
12816;SDS011;6473;51.552;6.716;2024-01-10T12:11:55;14.03;;;10.43;;
12816;SDS011;6473;51.552;6.716;2024-01-10T12:14:23;13.97;;;9.77;;
12816;SDS011;6473;51.552;6.716;2024-01-10T12:16:50;16.60;;;10.00;;
12816;SDS011;6473;51.552;6.716;2024-01-10T12:19:19;14.33;;;9.97;;
12816;SDS011;6473;51.552;6.716;2024-01-10T12:21:46;13.00;;;10.30;;
12816;SDS011;6473;51.552;6.716;2024-01-10T12:24:13;14.40;;;9.43;;
12816;SDS011;6473;51.552;6.716;2024-01-10T12:26:44;16.00;;;8.53;;
12816;SDS011;6473;51.552;6.716;2024-01-10T12:29:11;12.33;;;9.13;;
12816;SDS011;6473;51.552;6.716;2024-01-10T12:31:39;13.60;;;9.03;;
12816;SDS011;6473;51.552;6.716;2024-01-10T12:34:07;12.27;;;8.97;;
12816;SDS011;6473;51.552;6.716;2024-01-10T12:36:37;14.40;;;9.80;;
12816;SDS011;6473;51.552;6.716;2024-01-10T12:39:04;15.17;;;10.00;;
12816;SDS011;6473;51.552;6.716;2024-01-10T12:41:32;13.10;;;9.70;;
12816;SDS011;6473;51.552;6.716;2024-01-10T12:43:59;15.67;;;10.07;;
12816;SDS011;6473;51.552;6.716;2024-01-10T12:46:28;14.47;;;10.63;;
12816;SDS011;6473;51.552;6.716;2024-01-10T12:48:59;18.00;;;10.43;;
12816;SDS011;6473;51.552;6.716;2024-01-10T12:51:27;13.77;;;9.80;;
12816;SDS011;6473;51.552;6.716;2024-01-10T12:53:57;14.77;;;10.37;;
12816;SDS011;6473;51.552;6.716;2024-01-10T12:56:24;13.03;;;10.27;;
12816;SDS011;6473;51.552;6.716;2024-01-10T12:58:52;14.63;;;10.30;;
12816;SDS011;6473;51.552;6.716;2024-01-10T13:01:19;13.30;;;10.00;;
12816;SDS011;6473;51.552;6.716;2024-01-10T13:03:46;15.67;;;10.93;;
12816;SDS011;6473;51.552;6.716;2024-01-10T13:06:14;13.50;;;10.10;;
12816;SDS011;6473;51.552;6.716;2024-01-10T13:08:42;13.93;;;10.60;;
12816;SDS011;6473;51.552;6.716;2024-01-10T13:11:11;14.67;;;10.50;;
12816;SDS011;6473;51.552;6.716;2024-01-10T13:13:39;12.63;;;10.40;;
12816;SDS011;6473;51.552;6.716;2024-01-10T13:16:06;15.20;;;10.80;;
12816;SDS011;6473;51.552;6.716;2024-01-10T13:18:35;12.63;;;9.87;;
12816;SDS011;6473;51.552;6.716;2024-01-10T13:21:03;15.47;;;11.03;;
12816;SDS011;6473;51.552;6.716;2024-01-10T13:23:31;13.90;;;10.23;;
12816;SDS011;6473;51.552;6.716;2024-01-10T13:25:59;14.73;;;10.87;;
12816;SDS011;6473;51.552;6.716;2024-01-10T13:28:28;13.63;;;10.27;;
12816;SDS011;6473;51.552;6.716;2024-01-10T13:30:55;14.13;;;11.00;;
12816;SDS011;6473;51.552;6.716;2024-01-10T13:33:22;13.23;;;10.07;;
12816;SDS011;6473;51.552;6.716;2024-01-10T13:35:50;17.03;;;10.30;;
12816;SDS011;6473;51.552;6.716;2024-01-10T13:38:18;12.47;;;9.60;;
12816;SDS011;6473;51.552;6.716;2024-01-10T13:40:45;13.10;;;9.43;;
12816;SDS011;6473;51.552;6.716;2024-01-10T13:43:12;15.90;;;10.07;;
12816;SDS011;6473;51.552;6.716;2024-01-10T13:45:41;14.97;;;10.63;;
12816;SDS011;6473;51.552;6.716;2024-01-10T13:48:08;15.07;;;10.40;;
12816;SDS011;6473;51.552;6.716;2024-01-10T13:50:36;14.40;;;9.97;;
12816;SDS011;6473;51.552;6.716;2024-01-10T13:53:03;13.70;;;10.03;;
12816;SDS011;6473;51.552;6.716;2024-01-10T13:55:30;13.53;;;10.27;;
12816;SDS011;6473;51.552;6.716;2024-01-10T13:57:58;13.00;;;10.17;;
12816;SDS011;6473;51.552;6.716;2024-01-10T14:00:25;13.80;;;10.03;;
12816;SDS011;6473;51.552;6.716;2024-01-10T14:02:54;11.90;;;9.43;;
12816;SDS011;6473;51.552;6.716;2024-01-10T14:05:25;12.63;;;10.10;;
12816;SDS011;6473;51.552;6.716;2024-01-10T14:07:52;16.07;;;9.97;;
12816;SDS011;6473;51.552;6.716;2024-01-10T14:10:20;17.33;;;10.70;;
12816;SDS011;6473;51.552;6.716;2024-01-10T14:12:47;12.83;;;9.03;;
12816;SDS011;6473;51.552;6.716;2024-01-10T14:15:14;15.30;;;9.23;;
12816;SDS011;6473;51.552;6.716;2024-01-10T14:17:41;14.07;;;9.67;;
12816;SDS011;6473;51.552;6.716;2024-01-10T14:20:10;12.23;;;9.57;;
12816;SDS011;6473;51.552;6.716;2024-01-10T14:22:38;13.53;;;8.87;;
12816;SDS011;6473;51.552;6.716;2024-01-10T14:25:07;14.67;;;9.20;;
12816;SDS011;6473;51.552;6.716;2024-01-10T14:27:35;12.13;;;8.87;;
12816;SDS011;6473;51.552;6.716;2024-01-10T14:30:04;14.23;;;9.03;;
12816;SDS011;6473;51.552;6.716;2024-01-10T14:32:33;10.97;;;8.63;;
12816;SDS011;6473;51.552;6.716;2024-01-10T14:35:01;13.50;;;9.37;;
12816;SDS011;6473;51.552;6.716;2024-01-10T14:37:31;12.90;;;8.13;;
12816;SDS011;6473;51.552;6.716;2024-01-10T14:40:00;12.93;;;8.10;;
12816;SDS011;6473;51.552;6.716;2024-01-10T14:42:28;11.43;;;8.80;;
12816;SDS011;6473;51.552;6.716;2024-01-10T14:44:55;13.97;;;8.83;;
12816;SDS011;6473;51.552;6.716;2024-01-10T14:47:23;10.63;;;8.53;;
12816;SDS011;6473;51.552;6.716;2024-01-10T14:49:50;17.20;;;10.70;;
12816;SDS011;6473;51.552;6.716;2024-01-10T14:52:17;15.77;;;11.87;;
12816;SDS011;6473;51.552;6.716;2024-01-10T14:54:46;14.97;;;10.90;;
12816;SDS011;6473;51.552;6.716;2024-01-10T14:57:13;13.20;;;10.57;;
12816;SDS011;6473;51.552;6.716;2024-01-10T14:59:41;12.63;;;9.90;;
12816;SDS011;6473;51.552;6.716;2024-01-10T15:02:08;14.37;;;10.90;;